sensor_id;sensor_type;location;lat;lon;timestamp;P1;durP1;ratioP1;P2;durP2;ratioP2
48092;SDS011;33873;47.442;18.902;2022-09-29T00:00:49;7.62;;;4.20;;
48092;SDS011;33873;47.442;18.902;2022-09-29T00:03:18;9.45;;;4.57;;
48092;SDS011;33873;47.442;18.902;2022-09-29T00:05:50;7.25;;;4.35;;
48092;SDS011;33873;47.442;18.902;2022-09-29T00:08:20;6.57;;;3.92;;
48092;SDS011;33873;47.442;18.902;2022-09-29T00:10:49;6.35;;;4.10;;
48092;SDS011;33873;47.442;18.902;2022-09-29T00:13:17;12.02;;;3.28;;
48092;SDS011;33873;47.442;18.902;2022-09-29T00:15:53;6.12;;;3.97;;
48092;SDS011;33873;47.442;18.902;2022-09-29T00:18:22;10.60;;;4.28;;
48092;SDS011;33873;47.442;18.902;2022-09-29T00:21:23;6.57;;;4.03;;
48092;SDS011;33873;47.442;18.902;2022-09-29T00:23:46;7.82;;;5.28;;
48092;SDS011;33873;47.442;18.902;2022-09-29T00:26:16;9.55;;;4.35;;
48092;SDS011;33873;47.442;18.902;2022-09-29T00:31:19;5.57;;;3.15;;
48092;SDS011;33873;47.442;18.902;2022-09-29T00:33:47;8.35;;;4.97;;
48092;SDS011;33873;47.442;18.902;2022-09-29T00:36:16;7.15;;;4.80;;
48092;SDS011;33873;47.442;18.902;2022-09-29T00:38:45;8.15;;;4.35;;
48092;SDS011;33873;47.442;18.902;2022-09-29T00:41:14;5.60;;;3.58;;
48092;SDS011;33873;47.442;18.902;2022-09-29T00:43:48;5.12;;;3.65;;
48092;SDS011;33873;47.442;18.902;2022-09-29T00:49:17;8.02;;;3.97;;
48092;SDS011;33873;47.442;18.902;2022-09-29T00:51:50;8.02;;;5.30;;
48092;SDS011;33873;47.442;18.902;2022-09-29T00:54:30;7.78;;;4.62;;
48092;SDS011;33873;47.442;18.902;2022-09-29T00:57:01;4.40;;;2.60;;
48092;SDS011;33873;47.442;18.902;2022-09-29T00:59:34;5.72;;;3.55;;
48092;SDS011;33873;47.442;18.902;2022-09-29T01:02:07;6.95;;;4.47;;
48092;SDS011;33873;47.442;18.902;2022-09-29T01:04:35;7.78;;;5.45;;
48092;SDS011;33873;47.442;18.902;2022-09-29T01:07:02;8.15;;;3.92;;
48092;SDS011;33873;47.442;18.902;2022-09-29T01:09:31;6.53;;;3.80;;
48092;SDS011;33873;47.442;18.902;2022-09-29T01:12:00;5.43;;;3.28;;
48092;SDS011;33873;47.442;18.902;2022-09-29T01:14:28;7.50;;;4.60;;
48092;SDS011;33873;47.442;18.902;2022-09-29T01:16:56;7.57;;;4.10;;
48092;SDS011;33873;47.442;18.902;2022-09-29T01:19:28;10.15;;;4.47;;
48092;SDS011;33873;47.442;18.902;2022-09-29T01:30:05;5.55;;;3.90;;
48092;SDS011;33873;47.442;18.902;2022-09-29T01:33:07;7.68;;;4.62;;
48092;SDS011;33873;47.442;18.902;2022-09-29T01:41:05;7.70;;;3.70;;
48092;SDS011;33873;47.442;18.902;2022-09-29T01:46:33;7.30;;;4.05;;
48092;SDS011;33873;47.442;18.902;2022-09-29T01:49:04;16.83;;;5.45;;
48092;SDS011;33873;47.442;18.902;2022-09-29T01:54:25;7.12;;;3.30;;
48092;SDS011;33873;47.442;18.902;2022-09-29T01:57:00;10.13;;;4.82;;
48092;SDS011;33873;47.442;18.902;2022-09-29T01:59:46;8.70;;;5.45;;
48092;SDS011;33873;47.442;18.902;2022-09-29T02:02:19;6.80;;;4.32;;
48092;SDS011;33873;47.442;18.902;2022-09-29T02:04:56;7.57;;;3.22;;
48092;SDS011;33873;47.442;18.902;2022-09-29T02:07:27;6.35;;;3.83;;
48092;SDS011;33873;47.442;18.902;2022-09-29T02:10:00;8.55;;;4.53;;
48092;SDS011;33873;47.442;18.902;2022-09-29T02:12:32;8.02;;;4.75;;
48092;SDS011;33873;47.442;18.902;2022-09-29T02:15:01;7.85;;;3.62;;
48092;SDS011;33873;47.442;18.902;2022-09-29T02:17:30;7.35;;;4.68;;
48092;SDS011;33873;47.442;18.902;2022-09-29T02:20:02;7.70;;;4.25;;
48092;SDS011;33873;47.442;18.902;2022-09-29T02:22:30;7.35;;;4.35;;
48092;SDS011;33873;47.442;18.902;2022-09-29T02:24:58;6.50;;;4.30;;
48092;SDS011;33873;47.442;18.902;2022-09-29T02:27:27;10.52;;;6.75;;
48092;SDS011;33873;47.442;18.902;2022-09-29T02:29:59;9.13;;;5.32;;
48092;SDS011;33873;47.442;18.902;2022-09-29T02:32:27;9.77;;;5.53;;
48092;SDS011;33873;47.442;18.902;2022-09-29T02:34:56;10.65;;;6.43;;
48092;SDS011;33873;47.442;18.902;2022-09-29T02:37:41;6.37;;;4.25;;
48092;SDS011;33873;47.442;18.902;2022-09-29T02:45:43;8.85;;;5.62;;
48092;SDS011;33873;47.442;18.902;2022-09-29T02:58:38;10.63;;;5.82;;
48092;SDS011;33873;47.442;18.902;2022-09-29T03:01:16;10.00;;;6.20;;
48092;SDS011;33873;47.442;18.902;2022-09-29T03:03:44;19.45;;;5.90;;
48092;SDS011;33873;47.442;18.902;2022-09-29T03:06:11;10.20;;;6.97;;
48092;SDS011;33873;47.442;18.902;2022-09-29T03:08:40;10.10;;;4.57;;
48092;SDS011;33873;47.442;18.902;2022-09-29T03:11:07;9.40;;;5.28;;
48092;SDS011;33873;47.442;18.902;2022-09-29T03:13:34;11.12;;;4.87;;
48092;SDS011;33873;47.442;18.902;2022-09-29T03:16:02;8.77;;;5.40;;
48092;SDS011;33873;47.442;18.902;2022-09-29T03:18:30;11.50;;;6.37;;
48092;SDS011;33873;47.442;18.902;2022-09-29T03:20:57;9.60;;;5.93;;
48092;SDS011;33873;47.442;18.902;2022-09-29T03:23:25;9.57;;;6.28;;
48092;SDS011;33873;47.442;18.902;2022-09-29T03:25:52;11.18;;;7.32;;
48092;SDS011;33873;47.442;18.902;2022-09-29T03:28:20;11.65;;;7.57;;
48092;SDS011;33873;47.442;18.902;2022-09-29T03:30:48;10.77;;;5.65;;
48092;SDS011;33873;47.442;18.902;2022-09-29T03:33:16;9.05;;;5.90;;
48092;SDS011;33873;47.442;18.902;2022-09-29T03:35:44;8.38;;;5.00;;
48092;SDS011;33873;47.442;18.902;2022-09-29T03:38:12;10.43;;;5.68;;
48092;SDS011;33873;47.442;18.902;2022-09-29T03:40:39;7.30;;;4.87;;
48092;SDS011;33873;47.442;18.902;2022-09-29T03:43:07;9.63;;;5.53;;
48092;SDS011;33873;47.442;18.902;2022-09-29T03:45:34;12.32;;;6.43;;
48092;SDS011;33873;47.442;18.902;2022-09-29T03:48:02;7.25;;;4.95;;
48092;SDS011;33873;47.442;18.902;2022-09-29T03:50:29;9.43;;;4.65;;
48092;SDS011;33873;47.442;18.902;2022-09-29T03:52:57;12.27;;;6.72;;
48092;SDS011;33873;47.442;18.902;2022-09-29T03:55:25;10.23;;;6.18;;
48092;SDS011;33873;47.442;18.902;2022-09-29T03:57:52;10.43;;;5.80;;
48092;SDS011;33873;47.442;18.902;2022-09-29T04:00:20;7.43;;;4.10;;
48092;SDS011;33873;47.442;18.902;2022-09-29T04:02:48;8.18;;;5.78;;
48092;SDS011;33873;47.442;18.902;2022-09-29T04:05:15;10.88;;;6.37;;
48092;SDS011;33873;47.442;18.902;2022-09-29T04:07:44;7.60;;;5.32;;
48092;SDS011;33873;47.442;18.902;2022-09-29T04:10:12;8.18;;;4.95;;
48092;SDS011;33873;47.442;18.902;2022-09-29T04:12:39;8.98;;;5.87;;
48092;SDS011;33873;47.442;18.902;2022-09-29T04:15:07;10.88;;;5.57;;
48092;SDS011;33873;47.442;18.902;2022-09-29T04:17:35;9.77;;;5.45;;
48092;SDS011;33873;47.442;18.902;2022-09-29T04:20:02;8.82;;;5.72;;
48092;SDS011;33873;47.442;18.902;2022-09-29T04:22:30;9.23;;;5.20;;
48092;SDS011;33873;47.442;18.902;2022-09-29T04:24:58;7.95;;;4.85;;
48092;SDS011;33873;47.442;18.902;2022-09-29T04:27:25;8.25;;;4.80;;
48092;SDS011;33873;47.442;18.902;2022-09-29T04:29:53;15.43;;;7.10;;
48092;SDS011;33873;47.442;18.902;2022-09-29T04:32:20;8.95;;;5.72;;
48092;SDS011;33873;47.442;18.902;2022-09-29T04:34:49;8.40;;;4.78;;
48092;SDS011;33873;47.442;18.902;2022-09-29T04:37:16;7.10;;;5.55;;
48092;SDS011;33873;47.442;18.902;2022-09-29T04:39:44;7.30;;;4.68;;
48092;SDS011;33873;47.442;18.902;2022-09-29T04:42:11;7.57;;;4.75;;
48092;SDS011;33873;47.442;18.902;2022-09-29T04:44:39;7.47;;;4.55;;
48092;SDS011;33873;47.442;18.902;2022-09-29T04:47:06;10.45;;;6.55;;
48092;SDS011;33873;47.442;18.902;2022-09-29T04:49:34;11.85;;;5.32;;
48092;SDS011;33873;47.442;18.902;2022-09-29T04:52:02;13.07;;;7.93;;
48092;SDS011;33873;47.442;18.902;2022-09-29T04:54:33;12.50;;;8.25;;
48092;SDS011;33873;47.442;18.902;2022-09-29T04:57:05;6.90;;;4.65;;
48092;SDS011;33873;47.442;18.902;2022-09-29T04:59:33;10.00;;;6.43;;
48092;SDS011;33873;47.442;18.902;2022-09-29T05:02:01;10.77;;;7.15;;
48092;SDS011;33873;47.442;18.902;2022-09-29T05:04:28;9.07;;;6.32;;
48092;SDS011;33873;47.442;18.902;2022-09-29T05:06:56;14.00;;;8.50;;
48092;SDS011;33873;47.442;18.902;2022-09-29T05:09:23;13.57;;;8.02;;
48092;SDS011;33873;47.442;18.902;2022-09-29T05:11:53;15.23;;;10.32;;
48092;SDS011;33873;47.442;18.902;2022-09-29T05:14:21;15.15;;;11.02;;
48092;SDS011;33873;47.442;18.902;2022-09-29T05:16:48;14.80;;;10.68;;
48092;SDS011;33873;47.442;18.902;2022-09-29T05:19:16;12.32;;;9.35;;
48092;SDS011;33873;47.442;18.902;2022-09-29T05:21:44;10.63;;;7.68;;
48092;SDS011;33873;47.442;18.902;2022-09-29T05:24:13;13.43;;;9.82;;
48092;SDS011;33873;47.442;18.902;2022-09-29T05:26:40;12.07;;;7.35;;
48092;SDS011;33873;47.442;18.902;2022-09-29T05:29:08;13.73;;;9.40;;
48092;SDS011;33873;47.442;18.902;2022-09-29T05:31:35;13.90;;;8.38;;
48092;SDS011;33873;47.442;18.902;2022-09-29T05:34:03;8.32;;;5.85;;
48092;SDS011;33873;47.442;18.902;2022-09-29T05:36:30;10.40;;;7.00;;
48092;SDS011;33873;47.442;18.902;2022-09-29T05:38:58;11.80;;;8.60;;
48092;SDS011;33873;47.442;18.902;2022-09-29T05:41:25;9.07;;;5.82;;
48092;SDS011;33873;47.442;18.902;2022-09-29T05:43:53;7.85;;;4.10;;
48092;SDS011;33873;47.442;18.902;2022-09-29T05:46:21;8.35;;;4.68;;
48092;SDS011;33873;47.442;18.902;2022-09-29T05:48:49;6.18;;;4.37;;
48092;SDS011;33873;47.442;18.902;2022-09-29T05:51:19;9.20;;;4.47;;
48092;SDS011;33873;47.442;18.902;2022-09-29T05:53:50;6.75;;;3.47;;
48092;SDS011;33873;47.442;18.902;2022-09-29T05:56:19;6.00;;;3.97;;
48092;SDS011;33873;47.442;18.902;2022-09-29T05:58:48;6.70;;;4.50;;
48092;SDS011;33873;47.442;18.902;2022-09-29T06:01:17;7.05;;;4.07;;
48092;SDS011;33873;47.442;18.902;2022-09-29T06:03:47;7.43;;;4.68;;
48092;SDS011;33873;47.442;18.902;2022-09-29T06:06:15;7.43;;;4.00;;
48092;SDS011;33873;47.442;18.902;2022-09-29T06:08:45;4.87;;;3.25;;
48092;SDS011;33873;47.442;18.902;2022-09-29T06:11:14;6.32;;;3.53;;
48092;SDS011;33873;47.442;18.902;2022-09-29T06:14:02;4.90;;;3.03;;
48092;SDS011;33873;47.442;18.902;2022-09-29T06:16:30;3.58;;;2.05;;
48092;SDS011;33873;47.442;18.902;2022-09-29T06:18:59;4.87;;;2.83;;
48092;SDS011;33873;47.442;18.902;2022-09-29T06:21:27;3.22;;;1.62;;
48092;SDS011;33873;47.442;18.902;2022-09-29T06:23:56;3.05;;;1.85;;
48092;SDS011;33873;47.442;18.902;2022-09-29T06:26:25;4.12;;;2.03;;
48092;SDS011;33873;47.442;18.902;2022-09-29T06:28:53;1.92;;;1.23;;
48092;SDS011;33873;47.442;18.902;2022-09-29T06:31:23;2.30;;;1.27;;
48092;SDS011;33873;47.442;18.902;2022-09-29T06:33:55;3.85;;;1.67;;
48092;SDS011;33873;47.442;18.902;2022-09-29T06:36:24;2.25;;;1.27;;
48092;SDS011;33873;47.442;18.902;2022-09-29T06:39:12;1.12;;;0.75;;
48092;SDS011;33873;47.442;18.902;2022-09-29T06:41:41;2.72;;;1.62;;
48092;SDS011;33873;47.442;18.902;2022-09-29T06:44:14;2.25;;;1.27;;
48092;SDS011;33873;47.442;18.902;2022-09-29T06:46:42;2.97;;;0.95;;
48092;SDS011;33873;47.442;18.902;2022-09-29T06:49:10;2.28;;;1.27;;
48092;SDS011;33873;47.442;18.902;2022-09-29T06:51:39;1.70;;;0.80;;
48092;SDS011;33873;47.442;18.902;2022-09-29T06:54:13;1.17;;;0.82;;
48092;SDS011;33873;47.442;18.902;2022-09-29T06:56:45;1.52;;;1.08;;
48092;SDS011;33873;47.442;18.902;2022-09-29T06:59:14;2.05;;;0.77;;
48092;SDS011;33873;47.442;18.902;2022-09-29T07:01:42;2.97;;;1.08;;
48092;SDS011;33873;47.442;18.902;2022-09-29T07:04:09;3.50;;;1.40;;
48092;SDS011;33873;47.442;18.902;2022-09-29T07:06:37;1.65;;;1.00;;
48092;SDS011;33873;47.442;18.902;2022-09-29T07:09:05;2.05;;;1.23;;
48092;SDS011;33873;47.442;18.902;2022-09-29T07:11:32;1.67;;;1.10;;
48092;SDS011;33873;47.442;18.902;2022-09-29T07:14:00;1.17;;;0.73;;
48092;SDS011;33873;47.442;18.902;2022-09-29T07:16:27;3.45;;;1.05;;
48092;SDS011;33873;47.442;18.902;2022-09-29T07:18:55;1.08;;;0.88;;
48092;SDS011;33873;47.442;18.902;2022-09-29T07:21:22;14.27;;;1.25;;
48092;SDS011;33873;47.442;18.902;2022-09-29T07:23:50;1.67;;;0.85;;
48092;SDS011;33873;47.442;18.902;2022-09-29T07:26:17;5.35;;;1.37;;
48092;SDS011;33873;47.442;18.902;2022-09-29T07:28:45;4.70;;;1.60;;
48092;SDS011;33873;47.442;18.902;2022-09-29T07:31:14;3.12;;;1.02;;
48092;SDS011;33873;47.442;18.902;2022-09-29T07:33:44;2.00;;;1.42;;
48092;SDS011;33873;47.442;18.902;2022-09-29T07:36:13;2.20;;;1.67;;
48092;SDS011;33873;47.442;18.902;2022-09-29T07:38:44;2.58;;;0.90;;
48092;SDS011;33873;47.442;18.902;2022-09-29T07:41:12;2.97;;;0.85;;
48092;SDS011;33873;47.442;18.902;2022-09-29T07:43:40;2.37;;;1.23;;
48092;SDS011;33873;47.442;18.902;2022-09-29T07:46:08;3.40;;;1.27;;
48092;SDS011;33873;47.442;18.902;2022-09-29T07:48:36;2.35;;;1.48;;
48092;SDS011;33873;47.442;18.902;2022-09-29T07:51:05;2.55;;;1.23;;
48092;SDS011;33873;47.442;18.902;2022-09-29T07:53:34;3.33;;;1.75;;
48092;SDS011;33873;47.442;18.902;2022-09-29T07:56:06;2.65;;;1.52;;
48092;SDS011;33873;47.442;18.902;2022-09-29T07:58:35;2.00;;;1.37;;
48092;SDS011;33873;47.442;18.902;2022-09-29T08:01:04;1.50;;;1.12;;
48092;SDS011;33873;47.442;18.902;2022-09-29T08:03:37;0.93;;;0.85;;
48092;SDS011;33873;47.442;18.902;2022-09-29T08:06:05;2.12;;;1.08;;
48092;SDS011;33873;47.442;18.902;2022-09-29T08:08:37;0.85;;;0.70;;
48092;SDS011;33873;47.442;18.902;2022-09-29T08:11:10;2.70;;;1.48;;
48092;SDS011;33873;47.442;18.902;2022-09-29T08:13:54;2.17;;;1.42;;
48092;SDS011;33873;47.442;18.902;2022-09-29T08:16:22;2.53;;;1.33;;
48092;SDS011;33873;47.442;18.902;2022-09-29T08:18:50;1.95;;;1.15;;
48092;SDS011;33873;47.442;18.902;2022-09-29T08:21:17;3.33;;;1.37;;
48092;SDS011;33873;47.442;18.902;2022-09-29T08:23:45;1.83;;;1.05;;
48092;SDS011;33873;47.442;18.902;2022-09-29T08:26:14;1.65;;;1.10;;
48092;SDS011;33873;47.442;18.902;2022-09-29T08:28:43;2.70;;;1.50;;
48092;SDS011;33873;47.442;18.902;2022-09-29T08:31:13;1.17;;;0.82;;
48092;SDS011;33873;47.442;18.902;2022-09-29T08:33:46;2.53;;;1.07;;
48092;SDS011;33873;47.442;18.902;2022-09-29T08:36:18;2.83;;;1.70;;
48092;SDS011;33873;47.442;18.902;2022-09-29T08:38:47;2.42;;;1.27;;
48092;SDS011;33873;47.442;18.902;2022-09-29T08:41:20;1.85;;;1.20;;
48092;SDS011;33873;47.442;18.902;2022-09-29T08:47:06;1.77;;;1.08;;
48092;SDS011;33873;47.442;18.902;2022-09-29T08:49:41;1.35;;;0.88;;
48092;SDS011;33873;47.442;18.902;2022-09-29T08:52:15;1.20;;;0.85;;
48092;SDS011;33873;47.442;18.902;2022-09-29T08:54:46;1.17;;;0.80;;
48092;SDS011;33873;47.442;18.902;2022-09-29T08:57:16;1.65;;;1.17;;
48092;SDS011;33873;47.442;18.902;2022-09-29T08:59:55;4.00;;;1.73;;
48092;SDS011;33873;47.442;18.902;2022-09-29T09:16:53;1.75;;;0.85;;
48092;SDS011;33873;47.442;18.902;2022-09-29T09:19:50;1.67;;;1.00;;
48092;SDS011;33873;47.442;18.902;2022-09-29T09:25:35;1.25;;;0.95;;
48092;SDS011;33873;47.442;18.902;2022-09-29T09:31:03;2.15;;;1.10;;
48092;SDS011;33873;47.442;18.902;2022-09-29T09:36:44;0.75;;;0.68;;
48092;SDS011;33873;47.442;18.902;2022-09-29T09:42:31;1.37;;;0.82;;
48092;SDS011;33873;47.442;18.902;2022-09-29T09:45:05;1.73;;;1.08;;
48092;SDS011;33873;47.442;18.902;2022-09-29T09:47:37;3.87;;;1.10;;
48092;SDS011;33873;47.442;18.902;2022-09-29T09:50:12;1.23;;;1.02;;
48092;SDS011;33873;47.442;18.902;2022-09-29T09:55:30;1.65;;;1.00;;
48092;SDS011;33873;47.442;18.902;2022-09-29T09:58:06;1.73;;;1.08;;
48092;SDS011;33873;47.442;18.902;2022-09-29T10:03:11;1.35;;;0.75;;
48092;SDS011;33873;47.442;18.902;2022-09-29T10:05:41;1.45;;;0.88;;
48092;SDS011;33873;47.442;18.902;2022-09-29T10:08:21;2.08;;;1.20;;
48092;SDS011;33873;47.442;18.902;2022-09-29T10:10:52;2.25;;;1.35;;
48092;SDS011;33873;47.442;18.902;2022-09-29T10:13:26;1.90;;;1.30;;
48092;SDS011;33873;47.442;18.902;2022-09-29T10:18:35;1.62;;;1.02;;
48092;SDS011;33873;47.442;18.902;2022-09-29T10:21:21;1.95;;;1.15;;
48092;SDS011;33873;47.442;18.902;2022-09-29T10:23:52;1.67;;;1.00;;
48092;SDS011;33873;47.442;18.902;2022-09-29T10:26:30;1.48;;;0.90;;
48092;SDS011;33873;47.442;18.902;2022-09-29T10:29:20;2.40;;;1.20;;
48092;SDS011;33873;47.442;18.902;2022-09-29T10:34:27;0.80;;;0.50;;
48092;SDS011;33873;47.442;18.902;2022-09-29T10:37:06;1.67;;;0.85;;
48092;SDS011;33873;47.442;18.902;2022-09-29T10:39:49;0.77;;;0.77;;
48092;SDS011;33873;47.442;18.902;2022-09-29T10:45:18;1.10;;;0.40;;
48092;SDS011;33873;47.442;18.902;2022-09-29T10:50:24;1.67;;;0.60;;
48092;SDS011;33873;47.442;18.902;2022-09-29T10:52:57;1.77;;;0.88;;
48092;SDS011;33873;47.442;18.902;2022-09-29T10:55:26;1.12;;;0.70;;
48092;SDS011;33873;47.442;18.902;2022-09-29T10:57:56;1.52;;;0.85;;
48092;SDS011;33873;47.442;18.902;2022-09-29T11:03:02;1.70;;;0.73;;
48092;SDS011;33873;47.442;18.902;2022-09-29T11:06:01;2.37;;;1.10;;
48092;SDS011;33873;47.442;18.902;2022-09-29T11:08:30;1.05;;;0.73;;
48092;SDS011;33873;47.442;18.902;2022-09-29T11:11:18;0.93;;;0.70;;
48092;SDS011;33873;47.442;18.902;2022-09-29T11:13:48;1.20;;;0.75;;
48092;SDS011;33873;47.442;18.902;2022-09-29T11:16:18;0.98;;;0.50;;
48092;SDS011;33873;47.442;18.902;2022-09-29T11:18:50;0.80;;;0.57;;
48092;SDS011;33873;47.442;18.902;2022-09-29T11:23:49;1.67;;;0.80;;
48092;SDS011;33873;47.442;18.902;2022-09-29T11:29:23;1.20;;;0.70;;
48092;SDS011;33873;47.442;18.902;2022-09-29T11:34:42;1.95;;;0.68;;
48092;SDS011;33873;47.442;18.902;2022-09-29T11:37:27;2.55;;;0.73;;
48092;SDS011;33873;47.442;18.902;2022-09-29T11:42:58;0.93;;;0.57;;
48092;SDS011;33873;47.442;18.902;2022-09-29T11:45:32;2.45;;;0.82;;
48092;SDS011;33873;47.442;18.902;2022-09-29T11:48:38;1.98;;;0.88;;
48092;SDS011;33873;47.442;18.902;2022-09-29T11:56:54;2.78;;;1.42;;
48092;SDS011;33873;47.442;18.902;2022-09-29T12:07:53;0.70;;;0.50;;
48092;SDS011;33873;47.442;18.902;2022-09-29T12:10:40;2.58;;;1.10;;
48092;SDS011;33873;47.442;18.902;2022-09-29T12:13:14;2.20;;;0.77;;
48092;SDS011;33873;47.442;18.902;2022-09-29T12:15:53;0.43;;;0.43;;
48092;SDS011;33873;47.442;18.902;2022-09-29T12:18:27;1.25;;;0.77;;
48092;SDS011;33873;47.442;18.902;2022-09-29T12:20:59;1.65;;;0.80;;
48092;SDS011;33873;47.442;18.902;2022-09-29T12:23:27;3.47;;;1.12;;
48092;SDS011;33873;47.442;18.902;2022-09-29T12:28:52;3.80;;;1.12;;
48092;SDS011;33873;47.442;18.902;2022-09-29T12:31:23;1.45;;;0.70;;
48092;SDS011;33873;47.442;18.902;2022-09-29T12:34:02;1.95;;;0.80;;
48092;SDS011;33873;47.442;18.902;2022-09-29T12:39:34;1.25;;;0.82;;
48092;SDS011;33873;47.442;18.902;2022-09-29T12:42:34;1.92;;;0.80;;
48092;SDS011;33873;47.442;18.902;2022-09-29T12:48:14;1.52;;;0.85;;
48092;SDS011;33873;47.442;18.902;2022-09-29T12:50:56;0.40;;;0.40;;
48092;SDS011;33873;47.442;18.902;2022-09-29T12:53:33;1.95;;;0.95;;
48092;SDS011;33873;47.442;18.902;2022-09-29T12:56:07;2.28;;;1.15;;
48092;SDS011;33873;47.442;18.902;2022-09-29T12:58:44;2.95;;;1.48;;
48092;SDS011;33873;47.442;18.902;2022-09-29T13:01:24;2.20;;;1.10;;
48092;SDS011;33873;47.442;18.902;2022-09-29T13:11:54;4.75;;;1.77;;
48092;SDS011;33873;47.442;18.902;2022-09-29T13:22:32;2.08;;;1.25;;
48092;SDS011;33873;47.442;18.902;2022-09-29T13:27:55;3.53;;;1.52;;
48092;SDS011;33873;47.442;18.902;2022-09-29T13:30:24;2.78;;;1.48;;
48092;SDS011;33873;47.442;18.902;2022-09-29T13:35:26;4.47;;;1.25;;
48092;SDS011;33873;47.442;18.902;2022-09-29T13:38:04;3.08;;;1.40;;
48092;SDS011;33873;47.442;18.902;2022-09-29T13:40:32;2.83;;;1.27;;
48092;SDS011;33873;47.442;18.902;2022-09-29T13:43:01;2.33;;;1.25;;
48092;SDS011;33873;47.442;18.902;2022-09-29T13:48:02;1.25;;;0.88;;
48092;SDS011;33873;47.442;18.902;2022-09-29T13:53:34;2.75;;;0.82;;
48092;SDS011;33873;47.442;18.902;2022-09-29T14:01:05;3.03;;;1.20;;
48092;SDS011;33873;47.442;18.902;2022-09-29T14:03:38;5.37;;;1.58;;
48092;SDS011;33873;47.442;18.902;2022-09-29T14:09:12;5.12;;;1.48;;
48092;SDS011;33873;47.442;18.902;2022-09-29T14:11:47;2.80;;;0.98;;
48092;SDS011;33873;47.442;18.902;2022-09-29T14:14:22;3.90;;;1.37;;
48092;SDS011;33873;47.442;18.902;2022-09-29T14:16:57;3.20;;;1.20;;
48092;SDS011;33873;47.442;18.902;2022-09-29T14:19:51;2.42;;;0.80;;
48092;SDS011;33873;47.442;18.902;2022-09-29T14:27:45;5.25;;;1.20;;
48092;SDS011;33873;47.442;18.902;2022-09-29T14:32:59;2.70;;;1.02;;
48092;SDS011;33873;47.442;18.902;2022-09-29T14:35:32;2.20;;;0.80;;
48092;SDS011;33873;47.442;18.902;2022-09-29T14:52:34;4.15;;;1.25;;
48092;SDS011;33873;47.442;18.902;2022-09-29T14:55:30;2.70;;;1.20;;
48092;SDS011;33873;47.442;18.902;2022-09-29T14:58:32;1.55;;;1.00;;
48092;SDS011;33873;47.442;18.902;2022-09-29T15:01:21;2.25;;;1.12;;
48092;SDS011;33873;47.442;18.902;2022-09-29T15:03:55;1.33;;;0.95;;
48092;SDS011;33873;47.442;18.902;2022-09-29T15:06:25;2.35;;;0.73;;
48092;SDS011;33873;47.442;18.902;2022-09-29T15:08:55;3.10;;;1.00;;
48092;SDS011;33873;47.442;18.902;2022-09-29T15:13:55;1.45;;;0.95;;
48092;SDS011;33873;47.442;18.902;2022-09-29T15:16:37;2.22;;;0.93;;
48092;SDS011;33873;47.442;18.902;2022-09-29T15:19:35;0.82;;;0.60;;
48092;SDS011;33873;47.442;18.902;2022-09-29T15:22:23;1.75;;;0.90;;
48092;SDS011;33873;47.442;18.902;2022-09-29T15:25:20;3.00;;;0.88;;
48092;SDS011;33873;47.442;18.902;2022-09-29T15:30:32;1.45;;;0.73;;
48092;SDS011;33873;47.442;18.902;2022-09-29T15:33:03;0.95;;;0.60;;
48092;SDS011;33873;47.442;18.902;2022-09-29T15:35:45;2.62;;;1.08;;
48092;SDS011;33873;47.442;18.902;2022-09-29T15:38:16;1.17;;;0.57;;
48092;SDS011;33873;47.442;18.902;2022-09-29T15:40:56;1.80;;;0.95;;
48092;SDS011;33873;47.442;18.902;2022-09-29T15:43:29;1.65;;;0.85;;
48092;SDS011;33873;47.442;18.902;2022-09-29T15:46:20;1.52;;;0.80;;
48092;SDS011;33873;47.442;18.902;2022-09-29T15:52:17;2.17;;;1.05;;
48092;SDS011;33873;47.442;18.902;2022-09-29T15:54:39;8.00;;;5.30;;
48092;SDS011;33873;47.442;18.902;2022-09-29T15:57:27;6.55;;;4.87;;
48092;SDS011;33873;47.442;18.902;2022-09-29T16:02:47;4.12;;;2.53;;
48092;SDS011;33873;47.442;18.902;2022-09-29T16:05:30;5.60;;;2.67;;
48092;SDS011;33873;47.442;18.902;2022-09-29T16:08:03;21.23;;;11.85;;
48092;SDS011;33873;47.442;18.902;2022-09-29T16:10:34;20.95;;;12.18;;
48092;SDS011;33873;47.442;18.902;2022-09-29T16:13:05;15.68;;;10.40;;
48092;SDS011;33873;47.442;18.902;2022-09-29T16:15:44;9.23;;;5.78;;
48092;SDS011;33873;47.442;18.902;2022-09-29T16:18:15;9.60;;;6.37;;
48092;SDS011;33873;47.442;18.902;2022-09-29T16:21:06;8.77;;;4.15;;
48092;SDS011;33873;47.442;18.902;2022-09-29T16:32:50;8.85;;;4.80;;
48092;SDS011;33873;47.442;18.902;2022-09-29T16:40:51;7.72;;;3.70;;
48092;SDS011;33873;47.442;18.902;2022-09-29T16:43:24;10.43;;;3.30;;
48092;SDS011;33873;47.442;18.902;2022-09-29T16:45:56;8.73;;;4.10;;
48092;SDS011;33873;47.442;18.902;2022-09-29T16:48:26;9.65;;;4.05;;
48092;SDS011;33873;47.442;18.902;2022-09-29T16:50:56;8.95;;;3.95;;
48092;SDS011;33873;47.442;18.902;2022-09-29T16:53:26;7.45;;;3.08;;
48092;SDS011;33873;47.442;18.902;2022-09-29T16:55:57;6.18;;;3.28;;
48092;SDS011;33873;47.442;18.902;2022-09-29T16:58:34;9.73;;;3.17;;
48092;SDS011;33873;47.442;18.902;2022-09-29T17:01:02;5.05;;;2.37;;
48092;SDS011;33873;47.442;18.902;2022-09-29T17:03:30;6.05;;;3.05;;
48092;SDS011;33873;47.442;18.902;2022-09-29T17:05:58;4.22;;;2.60;;
48092;SDS011;33873;47.442;18.902;2022-09-29T17:08:26;8.60;;;3.12;;
48092;SDS011;33873;47.442;18.902;2022-09-29T17:10:55;7.30;;;2.87;;
48092;SDS011;33873;47.442;18.902;2022-09-29T17:13:23;5.82;;;2.35;;
48092;SDS011;33873;47.442;18.902;2022-09-29T17:16:03;6.53;;;3.15;;
48092;SDS011;33873;47.442;18.902;2022-09-29T17:18:32;3.87;;;1.87;;
48092;SDS011;33873;47.442;18.902;2022-09-29T17:20:59;8.73;;;3.15;;
48092;SDS011;33873;47.442;18.902;2022-09-29T17:23:27;5.65;;;3.17;;
48092;SDS011;33873;47.442;18.902;2022-09-29T17:25:56;4.37;;;2.20;;
48092;SDS011;33873;47.442;18.902;2022-09-29T17:28:43;3.95;;;2.37;;
48092;SDS011;33873;47.442;18.902;2022-09-29T17:31:11;4.30;;;2.30;;
48092;SDS011;33873;47.442;18.902;2022-09-29T17:33:39;4.65;;;2.60;;
48092;SDS011;33873;47.442;18.902;2022-09-29T17:36:08;5.55;;;1.77;;
48092;SDS011;33873;47.442;18.902;2022-09-29T17:38:38;3.45;;;1.90;;
48092;SDS011;33873;47.442;18.902;2022-09-29T17:41:08;3.37;;;1.67;;
48092;SDS011;33873;47.442;18.902;2022-09-29T17:43:36;5.47;;;2.37;;
48092;SDS011;33873;47.442;18.902;2022-09-29T17:46:04;4.55;;;2.65;;
48092;SDS011;33873;47.442;18.902;2022-09-29T17:48:32;8.35;;;3.37;;
48092;SDS011;33873;47.442;18.902;2022-09-29T17:51:00;6.37;;;3.65;;
48092;SDS011;33873;47.442;18.902;2022-09-29T17:53:30;8.40;;;6.93;;
48092;SDS011;33873;47.442;18.902;2022-09-29T17:55:57;7.55;;;4.12;;
48092;SDS011;33873;47.442;18.902;2022-09-29T17:58:25;9.40;;;6.50;;
48092;SDS011;33873;47.442;18.902;2022-09-29T18:00:53;15.55;;;13.27;;
48092;SDS011;33873;47.442;18.902;2022-09-29T18:03:23;11.77;;;6.87;;
48092;SDS011;33873;47.442;18.902;2022-09-29T18:05:52;9.02;;;5.03;;
48092;SDS011;33873;47.442;18.902;2022-09-29T18:08:23;10.13;;;5.95;;
48092;SDS011;33873;47.442;18.902;2022-09-29T18:10:56;6.87;;;3.62;;
48092;SDS011;33873;47.442;18.902;2022-09-29T18:13:25;8.20;;;4.35;;
48092;SDS011;33873;47.442;18.902;2022-09-29T18:15:54;21.67;;;19.73;;
48092;SDS011;33873;47.442;18.902;2022-09-29T18:18:22;13.07;;;11.15;;
48092;SDS011;33873;47.442;18.902;2022-09-29T18:20:50;14.87;;;11.68;;
48092;SDS011;33873;47.442;18.902;2022-09-29T18:23:18;22.95;;;20.62;;
48092;SDS011;33873;47.442;18.902;2022-09-29T18:25:47;8.88;;;5.93;;